createdAt,value
2019-05-18T00:00:59.812Z,15.07
2019-05-18T00:03:28.820Z,15.20
2019-05-18T00:05:57.763Z,15.53
2019-05-18T00:08:26.637Z,14.90
2019-05-18T00:10:55.730Z,15.97
2019-05-18T00:13:24.696Z,14.77
2019-05-18T00:15:53.557Z,15.40
2019-05-18T00:18:22.674Z,14.80
2019-05-18T00:20:51.637Z,14.40
2019-05-18T00:23:20.552Z,14.87
2019-05-18T00:25:49.487Z,15.53
2019-05-18T00:28:18.559Z,15.67
2019-05-18T00:30:47.523Z,14.93
2019-05-18T00:33:16.339Z,16.43
2019-05-18T00:35:45.560Z,15.60
2019-05-18T00:38:14.481Z,15.47
2019-05-18T00:40:43.411Z,35.00
2019-05-18T00:43:12.347Z,19.10
2019-05-18T00:45:41.276Z,16.53
2019-05-18T00:48:10.259Z,16.13
2019-05-18T00:50:39.244Z,15.87
2019-05-18T00:53:08.128Z,16.60
2019-05-18T00:55:37.154Z,16.57
2019-05-18T00:58:06.052Z,15.23
2019-05-18T01:00:35.054Z,15.20
2019-05-18T01:03:03.918Z,16.10
2019-05-18T01:05:32.861Z,16.37
2019-05-18T01:08:01.724Z,14.50
2019-05-18T01:10:30.810Z,15.73
2019-05-18T01:12:59.843Z,15.27
2019-05-18T01:15:28.746Z,15.50
2019-05-18T01:17:58.995Z,16.93
2019-05-18T01:20:28.480Z,15.33
2019-05-18T01:22:57.384Z,15.63
2019-05-18T01:25:26.350Z,14.73
2019-05-18T01:27:55.513Z,16.30
2019-05-18T01:30:24.580Z,15.47
2019-05-18T01:32:53.615Z,15.80
2019-05-18T01:35:22.565Z,16.17
2019-05-18T01:37:51.414Z,16.57
2019-05-18T01:40:20.545Z,15.67
2019-05-18T01:42:49.474Z,16.10
2019-05-18T01:45:18.564Z,16.00
2019-05-18T01:47:47.467Z,16.37
2019-05-18T01:50:16.414Z,15.97
2019-05-18T01:52:45.313Z,16.07
2019-05-18T01:55:14.407Z,15.87
2019-05-18T01:57:43.311Z,16.40
2019-05-18T02:00:12.976Z,16.53
2019-05-18T02:02:41.858Z,15.77
2019-05-18T02:05:10.951Z,16.93
2019-05-18T02:07:39.765Z,16.27
2019-05-18T02:10:09.080Z,16.93
2019-05-18T02:12:37.949Z,16.83
2019-05-18T02:15:08.601Z,17.07
2019-05-18T02:17:37.497Z,16.97
2019-05-18T02:20:06.961Z,15.47
2019-05-18T02:22:35.791Z,17.17
2019-05-18T02:25:08.502Z,17.73
2019-05-18T02:27:37.252Z,17.60
2019-05-18T02:30:06.739Z,19.23
2019-05-18T02:32:35.660Z,18.27
2019-05-18T02:35:05.005Z,17.97
2019-05-18T02:37:34.124Z,18.80
2019-05-18T02:40:03.083Z,18.37
2019-05-18T02:42:31.905Z,18.30
2019-05-18T02:45:00.850Z,17.90
2019-05-18T02:47:29.737Z,17.77
2019-05-18T02:49:58.556Z,18.17
2019-05-18T02:52:27.310Z,18.33
2019-05-18T02:54:56.182Z,18.40
2019-05-18T02:57:25.047Z,17.47
2019-05-18T02:59:53.829Z,18.40
2019-05-18T03:02:23.047Z,16.83
2019-05-18T03:04:52.270Z,17.93
2019-05-18T03:07:21.162Z,18.37
2019-05-18T03:09:50.039Z,17.50
2019-05-18T03:12:19.186Z,18.13
2019-05-18T03:14:48.380Z,18.03
2019-05-18T03:17:17.180Z,19.23
2019-05-18T03:19:45.952Z,17.97
2019-05-18T03:22:14.683Z,17.80
2019-05-18T03:24:43.685Z,17.77
2019-05-18T03:27:12.461Z,18.37
2019-05-18T03:29:41.261Z,18.83
2019-05-18T03:32:10.247Z,16.57
2019-05-18T03:34:47.882Z,18.47
2019-05-18T03:37:19.193Z,18.10
2019-05-18T03:39:48.087Z,18.33
2019-05-18T03:42:16.960Z,18.30
2019-05-18T03:44:45.958Z,17.97
2019-05-18T03:47:14.982Z,17.30
2019-05-18T03:49:43.849Z,18.57
2019-05-18T03:52:13.011Z,16.93
2019-05-18T03:54:41.815Z,17.27
2019-05-18T03:57:10.854Z,18.53
2019-05-18T03:59:39.731Z,18.80
2019-05-18T04:02:08.621Z,17.97
2019-05-18T04:04:37.521Z,17.13
2019-05-18T04:07:06.425Z,16.47
2019-05-18T04:09:35.312Z,17.63
2019-05-18T04:12:04.289Z,17.57
2019-05-18T04:14:33.235Z,18.73
2019-05-18T04:17:02.091Z,16.77
2019-05-18T04:19:45.466Z,18.47
2019-05-18T04:22:01.508Z,17.20
2019-05-18T04:24:30.378Z,19.37
2019-05-18T04:26:59.242Z,18.37
2019-05-18T04:29:28.092Z,19.13
2019-05-18T04:31:57.020Z,19.07
2019-05-18T04:34:26.211Z,18.20
2019-05-18T04:36:55.282Z,19.57
2019-05-18T04:39:24.212Z,19.50
2019-05-18T04:41:53.223Z,18.87
2019-05-18T04:44:22.077Z,19.13
2019-05-18T04:46:51.027Z,18.00
2019-05-18T04:49:19.816Z,18.33
2019-05-18T04:51:48.999Z,17.73
2019-05-18T04:54:17.787Z,16.90
2019-05-18T04:56:46.745Z,17.37
2019-05-18T04:59:15.637Z,16.20
2019-05-18T05:01:44.661Z,16.13
2019-05-18T05:04:13.672Z,16.43
2019-05-18T05:06:42.523Z,15.50
2019-05-18T05:09:11.371Z,15.67
2019-05-18T05:11:40.218Z,15.50
2019-05-18T05:14:09.270Z,15.83
2019-05-18T05:16:38.248Z,15.77
2019-05-18T05:19:08.813Z,15.53
2019-05-18T05:21:37.988Z,15.10
2019-05-18T05:24:06.859Z,14.23
2019-05-18T05:26:35.737Z,14.33
2019-05-18T05:29:04.693Z,14.40
2019-05-18T05:31:36.721Z,15.40
2019-05-18T05:34:05.707Z,14.37
2019-05-18T05:36:34.611Z,13.40
2019-05-18T05:39:05.113Z,14.20
2019-05-18T05:41:34.001Z,14.40
2019-05-18T05:44:03.141Z,14.13
2019-05-18T05:46:32.006Z,14.17
2019-05-18T05:49:01.201Z,13.70
2019-05-18T05:51:30.054Z,16.20
2019-05-18T05:53:59.154Z,13.10
2019-05-18T05:56:28.162Z,30.53
2019-05-18T05:58:57.187Z,13.30
2019-05-18T06:01:26.431Z,13.37
2019-05-18T06:03:55.297Z,13.10
2019-05-18T06:06:24.331Z,13.20
2019-05-18T06:08:53.328Z,13.00
2019-05-18T06:11:22.244Z,12.03
2019-05-18T06:13:51.326Z,13.13
2019-05-18T06:16:20.212Z,13.07
2019-05-18T06:18:49.126Z,12.37
2019-05-18T06:21:18.051Z,12.13
2019-05-18T06:23:47.076Z,12.33
2019-05-18T06:26:15.975Z,12.10
2019-05-18T06:28:44.878Z,15.90
2019-05-18T06:31:13.646Z,11.63
2019-05-18T06:33:42.527Z,12.03
2019-05-18T06:36:11.550Z,11.10
2019-05-18T06:38:40.598Z,11.17
2019-05-18T06:41:09.470Z,11.73
2019-05-18T06:43:38.387Z,11.40
2019-05-18T06:46:07.256Z,11.80
2019-05-18T06:48:36.234Z,12.20
2019-05-18T06:51:07.539Z,11.70
2019-05-18T06:53:35.830Z,13.37
2019-05-18T06:56:07.588Z,12.43
2019-05-18T06:58:36.595Z,11.27
2019-05-18T07:01:05.551Z,10.50
2019-05-18T07:03:34.485Z,11.07
2019-05-18T07:06:03.298Z,11.43
2019-05-18T07:08:32.177Z,11.00
2019-05-18T07:11:01.191Z,11.07
2019-05-18T07:13:30.162Z,11.23
2019-05-18T07:15:59.005Z,10.70
2019-05-18T07:18:28.079Z,11.73
2019-05-18T07:20:56.997Z,11.60
2019-05-18T07:23:25.858Z,11.50
2019-05-18T07:25:54.774Z,11.63
2019-05-18T07:28:23.825Z,11.70
2019-05-18T07:30:52.780Z,10.77
2019-05-18T07:33:21.773Z,10.60
2019-05-18T07:35:50.663Z,10.87
2019-05-18T07:38:19.514Z,9.67
2019-05-18T07:40:48.471Z,10.23
2019-05-18T07:43:18.833Z,10.53
2019-05-18T07:45:47.725Z,10.17
2019-05-18T07:48:16.700Z,10.60
2019-05-18T07:50:46.254Z,9.67
2019-05-18T07:53:15.119Z,13.27
2019-05-18T07:55:44.030Z,11.30
2019-05-18T07:58:12.810Z,10.60
2019-05-18T08:00:43.122Z,10.43
2019-05-18T08:03:12.219Z,9.53
2019-05-18T08:05:41.211Z,10.07
2019-05-18T08:08:09.957Z,10.33
2019-05-18T08:10:39.432Z,10.13
2019-05-18T08:13:09.093Z,9.60
2019-05-18T08:15:38.589Z,9.13
2019-05-18T08:18:07.559Z,9.50
2019-05-18T08:20:36.647Z,9.60
2019-05-18T08:23:05.612Z,8.27
2019-05-18T08:25:34.608Z,8.90
2019-05-18T08:28:03.577Z,8.40
2019-05-18T08:30:32.473Z,8.40
2019-05-18T08:33:01.321Z,7.87
2019-05-18T08:35:30.173Z,7.80
2019-05-18T08:37:59.033Z,7.80
2019-05-18T08:40:28.070Z,7.63
2019-05-18T08:42:56.865Z,8.33
2019-05-18T08:45:25.780Z,9.13
2019-05-18T08:47:54.661Z,12.00
2019-05-18T08:50:23.586Z,9.30
2019-05-18T08:52:52.490Z,8.80
2019-05-18T08:55:21.401Z,8.20
2019-05-18T08:57:50.475Z,8.07
2019-05-18T09:00:19.421Z,7.63
2019-05-18T09:02:48.332Z,7.10
2019-05-18T09:05:17.421Z,6.67
2019-05-18T09:07:46.479Z,8.07
2019-05-18T09:10:15.740Z,7.57
2019-05-18T09:12:44.501Z,7.27
2019-05-18T09:15:14.748Z,7.20
2019-05-18T09:17:43.557Z,7.27
2019-05-18T09:20:13.055Z,7.63
2019-05-18T09:22:42.015Z,6.90
2019-05-18T09:25:11.604Z,7.40
2019-05-18T09:27:40.515Z,7.77
2019-05-18T09:30:10.737Z,8.53
2019-05-18T09:32:39.652Z,7.60
2019-05-18T09:35:09.163Z,7.90
2019-05-18T09:37:38.143Z,7.30
2019-05-18T09:40:07.880Z,7.37
2019-05-18T09:42:37.003Z,8.00
2019-05-18T09:45:06.707Z,7.50
2019-05-18T09:47:35.616Z,8.10
2019-05-18T09:50:05.097Z,7.80
2019-05-18T09:52:45.077Z,7.50
2019-05-18T09:55:05.165Z,6.90
2019-05-18T09:57:33.980Z,7.47
2019-05-18T10:00:02.994Z,6.87
2019-05-18T10:02:31.964Z,6.90
2019-05-18T10:05:00.903Z,6.03
2019-05-18T10:07:29.760Z,6.87
2019-05-18T10:09:58.636Z,6.97
2019-05-18T10:12:27.468Z,7.30
2019-05-18T10:14:56.530Z,6.00
2019-05-18T10:17:25.573Z,6.17
2019-05-18T10:19:54.515Z,6.40
2019-05-18T10:22:23.484Z,6.10
2019-05-18T10:24:52.365Z,5.60
2019-05-18T10:27:21.291Z,5.73
2019-05-18T10:29:50.287Z,5.33
2019-05-18T10:32:19.228Z,5.97
2019-05-18T10:34:48.226Z,6.20
2019-05-18T10:37:17.183Z,6.40
2019-05-18T10:39:46.102Z,6.57
2019-05-18T10:42:15.648Z,5.70
2019-05-18T10:44:44.561Z,5.30
2019-05-18T10:47:13.345Z,5.73
2019-05-18T10:49:42.165Z,5.37
2019-05-18T10:52:11.091Z,6.50
2019-05-18T10:54:40.065Z,6.30
2019-05-18T10:57:09.130Z,6.20
2019-05-18T10:59:38.092Z,6.30
2019-05-18T11:02:07.119Z,6.70
2019-05-18T11:04:36.132Z,6.50
2019-05-18T11:07:40.769Z,6.50
2019-05-18T11:10:10.582Z,5.80
2019-05-18T11:12:39.742Z,6.57
2019-05-18T11:15:09.566Z,7.40
2019-05-18T11:17:38.727Z,7.20
2019-05-18T11:20:08.774Z,7.13
2019-05-18T11:22:37.705Z,6.40
2019-05-18T11:25:07.332Z,6.03
2019-05-18T11:27:36.293Z,6.40
2019-05-18T11:30:05.914Z,6.13
2019-05-18T11:32:34.977Z,6.40
2019-05-18T11:35:04.119Z,6.10
2019-05-18T11:37:33.000Z,6.50
2019-05-18T11:40:02.090Z,6.90
2019-05-18T11:42:31.111Z,6.80
2019-05-18T11:44:59.957Z,6.87
2019-05-18T11:47:28.803Z,6.17
2019-05-18T11:49:57.717Z,6.47
2019-05-18T11:52:26.689Z,6.50
2019-05-18T11:54:55.514Z,6.47
2019-05-18T11:57:24.484Z,6.30
2019-05-18T12:00:14.129Z,6.20
2019-05-18T12:02:43.184Z,6.57
2019-05-18T12:05:12.424Z,6.30
2019-05-18T12:07:41.411Z,5.57
2019-05-18T12:10:11.162Z,6.23
2019-05-18T12:12:39.990Z,6.97
2019-05-18T12:15:09.842Z,5.63
2019-05-18T12:17:38.920Z,6.30
2019-05-18T12:20:08.749Z,5.60
2019-05-18T12:22:37.930Z,5.90
2019-05-18T12:25:07.895Z,5.70
2019-05-18T12:27:37.014Z,5.80
2019-05-18T12:30:06.480Z,6.03
2019-05-18T12:32:35.446Z,5.57
2019-05-18T12:35:04.676Z,5.03
2019-05-18T12:37:33.592Z,5.17
2019-05-18T12:40:02.569Z,4.90
2019-05-18T12:42:31.527Z,4.97
2019-05-18T12:45:00.614Z,5.70
2019-05-18T12:47:29.393Z,5.07
2019-05-18T12:49:58.357Z,4.93
2019-05-18T12:52:27.273Z,4.90
2019-05-18T12:54:56.210Z,4.70
2019-05-18T12:57:25.084Z,4.43
2019-05-18T12:59:54.015Z,3.97
2019-05-18T13:02:22.979Z,4.13
2019-05-18T13:04:51.816Z,4.13
2019-05-18T13:07:20.691Z,4.50
2019-05-18T13:09:49.683Z,4.40
2019-05-18T13:12:18.512Z,4.37
2019-05-18T13:14:47.369Z,4.30
2019-05-18T13:17:16.521Z,4.57
2019-05-18T13:19:45.612Z,4.60
2019-05-18T13:22:14.532Z,4.50
2019-05-18T13:24:45.618Z,4.50
2019-05-18T13:27:39.621Z,4.03
2019-05-18T13:30:04.670Z,4.70
2019-05-18T13:32:33.527Z,4.23
2019-05-18T13:35:02.461Z,4.33
2019-05-18T13:37:31.252Z,4.50
2019-05-18T13:40:00.097Z,4.03
2019-05-18T13:42:31.363Z,4.47
2019-05-18T13:45:00.212Z,3.97
2019-05-18T13:47:29.015Z,4.43
2019-05-18T13:49:58.421Z,4.30
2019-05-18T13:52:27.433Z,4.40
2019-05-18T13:55:03.611Z,4.20
2019-05-18T13:57:27.060Z,4.53
2019-05-18T13:59:55.830Z,4.43
2019-05-18T14:02:24.824Z,4.37
2019-05-18T14:04:53.932Z,4.50
2019-05-18T14:07:22.795Z,4.40
2019-05-18T14:09:51.642Z,4.07
2019-05-18T14:12:20.409Z,4.33
2019-05-18T14:14:49.269Z,4.50
2019-05-18T14:17:18.143Z,4.20
2019-05-18T14:19:46.972Z,4.33
2019-05-18T14:22:15.801Z,4.30
2019-05-18T14:24:44.656Z,3.97
2019-05-18T14:27:13.453Z,4.43
2019-05-18T14:29:42.452Z,5.00
2019-05-18T14:32:11.398Z,4.17
2019-05-18T14:34:40.468Z,4.40
2019-05-18T14:37:09.411Z,4.80
2019-05-18T14:39:38.263Z,4.40
2019-05-18T14:42:29.299Z,4.20
2019-05-18T14:44:58.286Z,4.40
2019-05-18T14:47:27.608Z,4.10
2019-05-18T14:49:56.539Z,4.80
2019-05-18T14:52:25.469Z,4.40
2019-05-18T14:54:54.332Z,4.47
2019-05-18T14:57:25.607Z,4.40
2019-05-18T14:59:53.862Z,4.23
2019-05-18T15:02:22.652Z,4.37
2019-05-18T15:04:55.096Z,4.23
2019-05-18T15:07:22.188Z,4.77
2019-05-18T15:09:50.922Z,4.53
2019-05-18T15:12:19.948Z,5.60
2019-05-18T15:14:48.762Z,4.63
2019-05-18T15:17:17.509Z,6.77
2019-05-18T15:19:46.313Z,4.70
2019-05-18T15:22:15.186Z,4.80
2019-05-18T15:24:44.171Z,4.70
2019-05-18T15:27:13.113Z,4.77
2019-05-18T15:29:42.222Z,4.60
2019-05-18T15:32:11.029Z,5.20
2019-05-18T15:34:39.959Z,4.20
2019-05-18T15:37:09.015Z,4.83
2019-05-18T15:39:38.034Z,3.90
2019-05-18T15:42:07.080Z,4.37
2019-05-18T15:44:36.038Z,4.10
2019-05-18T15:47:05.194Z,4.60
2019-05-18T15:49:34.202Z,4.67
2019-05-18T15:52:03.071Z,4.43
2019-05-18T15:54:31.970Z,5.20
2019-05-18T15:57:00.899Z,5.33
2019-05-18T15:59:29.839Z,4.90
2019-05-18T16:01:58.628Z,5.10
2019-05-18T16:04:27.569Z,4.40
2019-05-18T16:06:56.521Z,4.77
2019-05-18T16:09:25.399Z,4.40
2019-05-18T16:11:54.289Z,4.60
2019-05-18T16:14:23.181Z,4.60
2019-05-18T16:16:54.839Z,5.00
2019-05-18T16:19:22.629Z,4.80
2019-05-18T16:21:51.955Z,4.30
2019-05-18T16:24:20.800Z,4.57
2019-05-18T16:26:49.773Z,5.50
2019-05-18T16:29:18.593Z,5.40
2019-05-18T16:31:49.979Z,5.30
2019-05-18T16:34:18.901Z,5.40
2019-05-18T16:36:47.840Z,5.43
2019-05-18T16:39:16.680Z,5.07
2019-05-18T16:41:45.816Z,5.07
2019-05-18T16:44:14.698Z,5.10
2019-05-18T16:46:43.502Z,4.63
2019-05-18T16:49:12.584Z,5.10
2019-05-18T16:51:41.944Z,4.70
2019-05-18T16:54:11.024Z,5.07
2019-05-18T16:56:39.983Z,4.63
2019-05-18T16:59:08.827Z,5.20
2019-05-18T17:01:37.673Z,4.13
2019-05-18T17:04:06.582Z,4.33
2019-05-18T17:06:35.449Z,4.40
2019-05-18T17:09:05.713Z,4.90
2019-05-18T17:11:34.710Z,4.67
2019-05-18T17:14:04.034Z,4.73
2019-05-18T17:16:32.955Z,4.23
2019-05-18T17:19:01.826Z,5.10
2019-05-18T17:21:32.788Z,4.47
2019-05-18T17:24:01.694Z,4.80
2019-05-18T17:26:30.576Z,5.20
2019-05-18T17:28:59.468Z,4.80
2019-05-18T17:31:28.258Z,4.83
2019-05-18T17:33:57.130Z,4.40
2019-05-18T17:36:25.964Z,4.90
2019-05-18T17:38:54.992Z,5.13
2019-05-18T17:41:23.911Z,5.43
2019-05-18T17:43:52.914Z,5.50
2019-05-18T17:46:21.941Z,5.40
2019-05-18T17:48:50.800Z,5.93
2019-05-18T17:51:19.800Z,5.10
2019-05-18T17:53:48.716Z,5.63
2019-05-18T17:56:17.597Z,4.90
2019-05-18T17:58:46.615Z,5.07
2019-05-18T18:01:15.458Z,7.70
2019-05-18T18:03:44.366Z,6.87
2019-05-18T18:06:13.349Z,5.53
2019-05-18T18:08:42.206Z,5.70
2019-05-18T18:11:11.972Z,5.53
2019-05-18T18:13:40.903Z,5.63
2019-05-18T18:16:09.797Z,6.10
2019-05-18T18:18:38.700Z,5.57
2019-05-18T18:21:07.770Z,5.57
2019-05-18T18:23:36.647Z,5.80
2019-05-18T18:26:05.820Z,5.70
2019-05-18T18:28:34.619Z,5.70
2019-05-18T18:31:03.532Z,5.83
2019-05-18T18:33:32.452Z,6.37
2019-05-18T18:36:01.216Z,6.03
2019-05-18T18:38:30.304Z,6.00
2019-05-18T18:40:59.136Z,6.10
2019-05-18T18:43:28.376Z,32.37
2019-05-18T18:45:57.132Z,53.77
2019-05-18T18:48:26.620Z,36.23
2019-05-18T18:50:55.553Z,30.13
2019-05-18T18:53:24.474Z,25.10
2019-05-18T18:55:53.329Z,20.77
2019-05-18T18:58:22.077Z,17.03
2019-05-18T19:00:50.899Z,16.30
2019-05-18T19:03:19.807Z,13.67
2019-05-18T19:05:48.733Z,12.47
2019-05-18T19:08:17.944Z,11.40
2019-05-18T19:10:47.267Z,10.27
2019-05-18T19:13:16.601Z,10.33
2019-05-18T19:16:04.771Z,10.20
2019-05-18T19:18:33.763Z,10.87
2019-05-18T19:21:02.759Z,10.10
2019-05-18T19:23:31.688Z,9.57
2019-05-18T19:26:00.500Z,9.90
2019-05-18T19:28:29.370Z,10.50
2019-05-18T19:31:01.059Z,10.53
2019-05-18T19:33:29.997Z,10.60
2019-05-18T19:35:58.939Z,10.33
2019-05-18T19:38:27.852Z,10.20
2019-05-18T19:40:57.238Z,9.87
2019-05-18T19:43:26.252Z,9.73
2019-05-18T19:45:55.162Z,9.77
2019-05-18T19:48:24.377Z,14.10
2019-05-18T19:50:53.190Z,21.30
2019-05-18T19:53:22.151Z,12.13
2019-05-18T19:55:51.621Z,14.47
2019-05-18T19:58:20.640Z,16.63
2019-05-18T20:00:53.200Z,16.00
2019-05-18T20:03:22.345Z,17.03
2019-05-18T20:05:51.240Z,16.53
2019-05-18T20:08:20.164Z,15.00
2019-05-18T20:10:49.127Z,13.20
2019-05-18T20:13:18.009Z,11.13
2019-05-18T20:15:46.899Z,11.33
2019-05-18T20:18:15.976Z,10.50
2019-05-18T20:20:44.801Z,9.87
2019-05-18T20:23:13.690Z,10.60
2019-05-18T20:25:42.670Z,10.97
2019-05-18T20:28:22.873Z,11.20
2019-05-18T20:30:42.361Z,11.30
2019-05-18T20:33:11.354Z,10.50
2019-05-18T20:35:40.281Z,11.30
2019-05-18T20:38:09.284Z,11.87
2019-05-18T20:40:38.154Z,12.10
2019-05-18T20:43:07.120Z,13.57
2019-05-18T20:45:36.166Z,14.00
2019-05-18T20:48:05.249Z,14.73
2019-05-18T20:50:34.167Z,14.40
2019-05-18T20:53:03.178Z,14.60
2019-05-18T20:55:32.034Z,14.60
2019-05-18T20:58:01.003Z,14.60
2019-05-18T21:00:29.887Z,15.60
2019-05-18T21:02:58.885Z,15.87
2019-05-18T21:05:27.859Z,15.90
2019-05-18T21:07:56.888Z,16.00
2019-05-18T21:10:25.810Z,15.70
2019-05-18T21:12:54.754Z,15.27
2019-05-18T21:15:23.636Z,16.33
2019-05-18T21:17:52.712Z,15.73
2019-05-18T21:20:21.598Z,16.73
2019-05-18T21:22:51.618Z,16.27
2019-05-18T21:25:20.368Z,17.03
2019-05-18T21:27:49.291Z,16.57
2019-05-18T21:30:18.247Z,16.57
2019-05-18T21:32:47.097Z,16.07
2019-05-18T21:35:16.075Z,15.47
2019-05-18T21:37:46.009Z,15.90
2019-05-18T21:40:16.528Z,16.87
2019-05-18T21:42:45.620Z,16.60
2019-05-18T21:45:14.830Z,18.00
2019-05-18T21:47:43.628Z,18.30
2019-05-18T21:50:12.867Z,18.60
2019-05-18T21:52:42.203Z,17.43
2019-05-18T21:55:11.382Z,19.00
2019-05-18T21:57:40.231Z,18.77
2019-05-18T22:00:09.852Z,19.13
2019-05-18T22:02:38.930Z,20.17
2019-05-18T22:05:08.001Z,19.20
2019-05-18T22:07:36.957Z,18.90
2019-05-18T22:10:06.670Z,18.37
2019-05-18T22:12:35.632Z,18.70
2019-05-18T22:15:05.310Z,19.23
2019-05-18T22:17:37.250Z,18.00
2019-05-18T22:20:06.254Z,18.47
2019-05-18T22:22:35.430Z,19.33
2019-05-18T22:25:04.920Z,19.20
2019-05-18T22:27:34.743Z,20.47
2019-05-18T22:30:04.514Z,20.93
2019-05-18T22:32:33.481Z,21.70
2019-05-18T22:35:02.245Z,20.40
2019-05-18T22:37:31.317Z,22.63
2019-05-18T22:40:00.173Z,23.10
2019-05-18T22:42:29.687Z,22.87
2019-05-18T22:44:58.635Z,23.10
2019-05-18T22:47:27.683Z,23.37
2019-05-18T22:49:56.664Z,23.07
2019-05-18T22:52:25.808Z,23.90
2019-05-18T22:54:55.097Z,23.77
2019-05-18T22:57:24.139Z,24.30
2019-05-18T22:59:53.023Z,24.67
2019-05-18T23:02:22.041Z,25.33
2019-05-18T23:04:51.441Z,24.87
2019-05-18T23:07:20.496Z,25.30
2019-05-18T23:09:49.435Z,26.37
2019-05-18T23:12:18.373Z,25.00
2019-05-18T23:14:47.404Z,25.33
2019-05-18T23:17:16.755Z,25.50
2019-05-18T23:19:45.770Z,24.67
2019-05-18T23:22:14.917Z,24.30
2019-05-18T23:24:43.871Z,24.37
2019-05-18T23:27:13.140Z,23.57
2019-05-18T23:29:42.187Z,23.27
2019-05-18T23:32:11.249Z,24.53
2019-05-18T23:34:40.506Z,23.77
2019-05-18T23:37:09.393Z,23.67
2019-05-18T23:39:38.229Z,24.23
2019-05-18T23:42:08.277Z,22.93
2019-05-18T23:44:37.287Z,22.83
2019-05-18T23:47:06.571Z,21.47
2019-05-18T23:49:35.414Z,22.23
2019-05-18T23:52:04.445Z,23.77
2019-05-18T23:54:33.216Z,23.10
2019-05-18T23:57:02.222Z,22.27
2019-05-18T23:59:31.076Z,21.33
